Time;durP1;ratioP1;P1;durP2;ratioP2;P2;SDS_P1;SDS_P2;PMS_P1;PMS_P2;Temp;Humidity;BMP_temperature;BMP_pressure;BME280_temperature;BME280_humidity;BME280_pressure;Samples;Min_cycle;Max_cycle;Signal;HPM_P1;HPM_P2
2023/07/09 00:01:44;;;;;;;16.58;6.25;;;24.40;91.20;;;;;;5047193;28;20037;-70
2023/07/09 00:04:13;;;;;;;11.33;6.17;;;24.40;91.70;;;;;;5047272;28;20029;-71
2023/07/09 00:06:40;;;;;;;14.02;7.18;;;24.30;92.00;;;;;;5047273;28;20543;-70
2023/07/09 00:09:11;;;;;;;9.75;5.93;;;24.20;91.80;;;;;;5051212;28;20112;-71
2023/07/09 00:11:37;;;;;;;17.00;7.22;;;24.20;91.90;;;;;;5051541;28;20025;-68
2023/07/09 00:14:05;;;;;;;20.13;7.83;;;24.20;91.80;;;;;;5051675;28;20515;-67
2023/07/09 00:16:31;;;;;;;8.82;5.72;;;24.20;92.60;;;;;;5051399;28;20033;-69
2023/07/09 00:18:57;;;;;;;11.73;6.68;;;24.10;93.20;;;;;;5051079;28;20515;-66
2023/07/09 00:21:22;;;;;;;11.57;5.90;;;24.20;93.60;;;;;;5050786;28;20044;-67
2023/07/09 00:23:51;;;;;;;14.95;6.75;;;24.00;93.90;;;;;;5051236;28;20041;-70
2023/07/09 00:26:20;;;;;;;12.93;5.70;;;23.90;93.50;;;;;;5050981;28;20056;-64
2023/07/09 00:28:46;;;;;;;12.55;7.05;;;24.00;93.70;;;;;;5051989;28;20021;-64
2023/07/09 00:31:14;;;;;;;17.52;7.32;;;24.10;92.00;;;;;;5051027;28;20149;-67
2023/07/09 00:33:41;;;;;;;13.02;6.32;;;24.20;91.80;;;;;;5051045;28;20069;-64
2023/07/09 00:36:16;;;;;;;13.85;6.65;;;24.20;91.70;;;;;;5051135;28;20017;-66
2023/07/09 00:38:47;;;;;;;12.88;6.72;;;24.20;91.70;;;;;;5081737;28;20037;-66
2023/07/09 00:41:20;;;;;;;12.65;7.60;;;24.10;92.10;;;;;;5050483;28;20033;-64
2023/07/09 00:43:47;;;;;;;15.90;6.55;;;24.00;92.50;;;;;;5051416;28;20397;-64
2023/07/09 00:46:19;;;;;;;13.88;6.35;;;24.00;92.40;;;;;;5050946;28;20381;-71
2023/07/09 00:49:06;;;;;;;17.08;7.45;;;24.00;92.00;;;;;;5050765;28;20700;-71
2023/07/09 00:51:35;;;;;;;15.90;6.93;;;24.10;92.10;;;;;;5046907;28;20156;-71
2023/07/09 00:54:09;;;;;;;10.95;6.80;;;24.00;92.30;;;;;;5050701;28;20021;-70
2023/07/09 00:56:40;;;;;;;11.85;7.00;;;24.00;92.30;;;;;;5052122;28;20033;-69
2023/07/09 00:59:11;;;;;;;13.68;6.38;;;24.00;92.00;;;;;;5049583;28;20074;-70
2023/07/09 01:01:40;;;;;;;13.02;6.40;;;24.00;92.00;;;;;;5049713;28;20108;-71
2023/07/09 01:04:05;;;;;;;16.02;6.68;;;24.00;91.80;;;;;;5050493;28;20033;-70
2023/07/09 01:06:38;;;;;;;9.70;6.15;;;24.00;91.60;;;;;;5050005;28;20040;-70
2023/07/09 01:09:05;;;;;;;9.60;6.60;;;24.10;91.40;;;;;;5047179;28;20033;-71
2023/07/09 01:11:31;;;;;;;11.02;7.13;;;24.10;91.20;;;;;;5049611;28;20123;-70
2023/07/09 01:14:01;;;;;;;14.70;6.30;;;24.10;91.20;;;;;;5049983;28;20104;-69
2023/07/09 01:16:30;;;;;;;12.55;6.32;;;24.10;91.00;;;;;;5049124;28;20166;-69
2023/07/09 01:18:55;;;;;;;10.63;6.57;;;24.10;90.90;;;;;;5049481;28;20771;-71
2023/07/09 01:21:21;;;;;;;19.47;6.80;;;24.00;91.30;;;;;;5049277;28;20078;-71
2023/07/09 01:23:51;;;;;;;9.27;6.83;;;24.00;91.30;;;;;;5049341;28;20028;-70
2023/07/09 01:26:24;;;;;;;9.43;6.18;;;23.90;91.80;;;;;;5048596;28;21618;-70
2023/07/09 01:28:51;;;;;;;17.30;6.22;;;24.00;91.40;;;;;;5047811;28;20028;-70
2023/07/09 01:31:17;;;;;;;14.45;6.18;;;24.00;91.50;;;;;;5049631;28;20496;-70
2023/07/09 01:33:44;;;;;;;9.55;6.38;;;23.90;91.90;;;;;;5049418;28;20025;-69
2023/07/09 01:36:23;;;;;;;11.10;6.55;;;23.90;92.60;;;;;;5048412;28;20163;-70
2023/07/09 01:38:49;;;;;;;16.85;6.82;;;23.90;92.50;;;;;;5047351;28;20120;-71
2023/07/09 01:41:15;;;;;;;15.57;6.22;;;24.00;92.00;;;;;;5048727;28;20417;-69
2023/07/09 01:43:42;;;;;;;14.25;6.93;;;24.00;92.40;;;;;;5049721;28;20032;-71
2023/07/09 01:46:10;;;;;;;10.07;6.07;;;23.80;91.30;;;;;;5048844;28;20029;-71
2023/07/09 01:48:40;;;;;;;13.27;6.07;;;23.80;92.80;;;;;;5049095;28;20036;-70
2023/07/09 01:51:11;;;;;;;11.88;6.00;;;23.80;91.30;;;;;;5048588;28;20025;-69
2023/07/09 01:53:38;;;;;;;16.10;6.75;;;23.90;90.80;;;;;;5049244;28;20112;-71
2023/07/09 01:56:07;;;;;;;16.80;6.10;;;23.80;91.00;;;;;;5063950;28;20028;-68
2023/07/09 01:58:33;;;;;;;13.48;7.47;;;23.80;91.60;;;;;;5048823;28;20477;-70
2023/07/09 02:01:00;;;;;;;16.85;5.65;;;23.80;91.90;;;;;;5049001;28;20057;-70
2023/07/09 02:03:25;;;;;;;12.63;7.18;;;23.80;92.00;;;;;;5048600;28;20132;-70
2023/07/09 02:05:54;;;;;;;14.52;6.18;;;23.80;92.70;;;;;;5048895;28;20104;-70
2023/07/09 02:08:20;;;;;;;11.27;6.20;;;23.70;93.50;;;;;;5048563;28;20425;-69
2023/07/09 02:10:49;;;;;;;11.07;5.90;;;23.60;92.60;;;;;;5063286;28;20028;-71
2023/07/09 02:13:15;;;;;;;12.60;6.78;;;23.80;92.00;;;;;;5048673;28;20092;-70
2023/07/09 02:15:43;;;;;;;15.68;6.68;;;23.50;93.90;;;;;;5049042;28;20029;-71
2023/07/09 02:18:10;;;;;;;17.55;6.10;;;23.50;93.40;;;;;;5048918;28;20401;-70
2023/07/09 02:20:35;;;;;;;11.32;6.05;;;23.40;93.90;;;;;;5048808;28;20029;-70
2023/07/09 02:23:02;;;;;;;11.27;6.13;;;23.30;94.10;;;;;;5048529;28;20086;-65
2023/07/09 02:25:28;;;;;;;11.98;6.00;;;23.20;94.30;;;;;;5048164;28;20324;-67
2023/07/09 02:27:54;;;;;;;13.07;6.15;;;23.10;94.40;;;;;;5047899;28;20052;-67
2023/07/09 02:30:19;;;;;;;11.40;5.77;;;23.30;93.90;;;;;;5047304;28;20029;-68
2023/07/09 02:32:45;;;;;;;10.63;6.13;;;23.40;93.60;;;;;;5048013;28;20195;-66
2023/07/09 02:35:10;;;;;;;12.07;6.37;;;23.40;93.70;;;;;;5047825;28;20036;-65
2023/07/09 02:37:36;;;;;;;13.40;6.03;;;23.20;93.70;;;;;;5047874;28;20024;-64
2023/07/09 02:40:04;;;;;;;16.25;6.32;;;23.20;93.90;;;;;;5047779;28;20025;-64
2023/07/09 02:42:29;;;;;;;10.85;6.25;;;23.30;93.40;;;;;;5047224;28;20052;-64
2023/07/09 02:44:55;;;;;;;9.47;6.07;;;23.20;94.80;;;;;;5047401;28;20033;-66
2023/07/09 02:47:21;;;;;;;13.07;6.53;;;23.20;93.80;;;;;;5047590;28;20436;-70
2023/07/09 02:49:47;;;;;;;10.50;6.72;;;23.10;94.30;;;;;;5047150;28;20524;-70
2023/07/09 02:52:13;;;;;;;12.02;6.80;;;23.10;94.50;;;;;;5047555;28;20033;-70
2023/07/09 02:54:39;;;;;;;11.52;6.50;;;22.90;94.80;;;;;;5048215;28;20570;-64
2023/07/09 02:57:05;;;;;;;12.97;6.97;;;23.10;94.60;;;;;;5047586;28;20028;-64
2023/07/09 02:59:31;;;;;;;8.23;5.18;;;23.00;95.20;;;;;;5048105;28;20032;-66
2023/07/09 03:01:56;;;;;;;15.48;7.28;;;22.90;95.40;;;;;;5047498;28;20045;-71
2023/07/09 03:04:22;;;;;;;11.85;6.40;;;22.90;95.30;;;;;;5047430;28;20052;-71
2023/07/09 03:06:48;;;;;;;11.27;6.43;;;22.90;95.40;;;;;;5047647;28;20086;-68
2023/07/09 03:09:13;;;;;;;14.93;6.63;;;23.00;94.10;;;;;;5047141;28;20271;-67
2023/07/09 03:11:39;;;;;;;12.60;6.50;;;23.00;94.10;;;;;;5047666;28;20076;-66
2023/07/09 03:14:05;;;;;;;14.33;6.23;;;23.10;93.80;;;;;;5047340;28;20534;-69
2023/07/09 03:16:33;;;;;;;12.00;7.10;;;23.10;93.50;;;;;;5047118;28;20033;-65
2023/07/09 03:18:59;;;;;;;9.38;5.78;;;23.20;93.30;;;;;;5047563;28;20283;-70
2023/07/09 03:21:26;;;;;;;9.98;5.68;;;23.20;92.90;;;;;;5046957;28;20056;-69
2023/07/09 03:23:53;;;;;;;14.40;5.70;;;23.20;93.00;;;;;;5047498;28;20113;-71
2023/07/09 03:26:19;;;;;;;;;;;23.20;93.60;;;;;;5047487;28;20711;-70
2023/07/09 03:28:44;;;;;;;13.80;6.82;;;23.20;93.00;;;;;;5048560;28;19967;-68
2023/07/09 03:31:10;;;;;;;12.63;5.60;;;23.20;93.30;;;;;;5047455;28;20404;-70
2023/07/09 03:33:36;;;;;;;9.80;6.17;;;23.00;93.60;;;;;;5047570;28;20052;-70
2023/07/09 03:36:04;;;;;;;16.25;6.80;;;22.90;94.30;;;;;;5047136;28;20107;-71
2023/07/09 03:38:30;;;;;;;10.35;6.50;;;22.80;94.70;;;;;;5045050;28;20037;-67
2023/07/09 03:40:55;;;;;;;9.02;6.00;;;22.70;95.00;;;;;;5046904;28;20021;-70
2023/07/09 03:43:22;;;;;;;13.02;5.85;;;22.70;95.50;;;;;;5046334;28;20037;-71
2023/07/09 03:45:50;;;;;;;;;;;22.60;95.80;;;;;;5047637;28;20452;-70
2023/07/09 03:48:18;;;;;;;17.67;6.68;;;22.60;96.20;;;;;;5046895;28;19904;-70
2023/07/09 03:50:45;;;;;;;10.95;6.55;;;22.60;96.10;;;;;;5047033;28;20448;-70
2023/07/09 03:53:12;;;;;;;9.25;6.55;;;22.60;96.00;;;;;;5047237;28;20095;-70
2023/07/09 03:55:38;;;;;;;13.60;6.25;;;22.60;96.10;;;;;;5046841;28;20567;-70
2023/07/09 03:58:04;;;;;;;11.18;6.18;;;22.60;96.00;;;;;;5045373;28;20092;-68
2023/07/09 04:00:30;;;;;;;10.60;5.90;;;22.60;96.00;;;;;;5046879;28;20091;-66
2023/07/09 04:02:56;;;;;;;10.45;6.70;;;22.60;95.80;;;;;;5046839;28;20094;-70
2023/07/09 04:05:23;;;;;;;19.33;7.13;;;22.60;96.00;;;;;;5045648;28;20021;-69
2023/07/09 04:07:48;;;;;;;16.58;6.95;;;22.50;96.60;;;;;;5046399;28;20083;-68
2023/07/09 04:10:14;;;;;;;13.67;6.40;;;22.50;96.30;;;;;;5046361;28;20045;-69
2023/07/09 04:12:40;;;;;;;14.60;7.70;;;22.50;96.60;;;;;;5046892;28;20088;-70
2023/07/09 04:15:07;;;;;;;12.98;6.78;;;22.60;96.20;;;;;;5046711;28;20071;-69
2023/07/09 04:17:32;;;;;;;11.95;6.13;;;22.50;95.70;;;;;;5046996;28;20029;-68
2023/07/09 04:19:58;;;;;;;16.98;6.88;;;22.60;95.60;;;;;;5046413;28;20079;-69
2023/07/09 04:22:24;;;;;;;13.13;7.00;;;22.50;95.60;;;;;;5046397;28;20110;-69
2023/07/09 04:24:50;;;;;;;15.23;6.40;;;22.40;96.30;;;;;;5046612;28;20033;-70
2023/07/09 04:27:16;;;;;;;17.15;7.22;;;22.30;97.00;;;;;;5045974;28;20091;-69
2023/07/09 04:29:42;;;;;;;11.88;6.35;;;22.40;97.10;;;;;;5047120;28;20033;-66
2023/07/09 04:32:13;;;;;;;25.17;6.85;;;22.30;96.80;;;;;;5046263;28;20511;-67
2023/07/09 04:34:41;;;;;;;14.85;6.32;;;22.30;97.00;;;;;;5046900;28;20032;-70
2023/07/09 04:37:08;;;;;;;14.82;6.63;;;22.30;97.30;;;;;;5044687;28;20021;-69
2023/07/09 04:39:34;;;;;;;11.00;6.22;;;22.30;97.30;;;;;;5047146;28;20040;-69
2023/07/09 04:42:00;;;;;;;9.43;6.03;;;22.20;97.70;;;;;;5047678;28;20396;-70
2023/07/09 04:44:26;;;;;;;17.45;7.03;;;22.20;98.00;;;;;;5052354;28;20503;-69
2023/07/09 04:46:51;;;;;;;14.73;6.63;;;22.20;98.30;;;;;;5047589;28;20357;-69
2023/07/09 04:49:17;;;;;;;10.90;5.93;;;22.20;98.20;;;;;;5047712;28;20719;-69
2023/07/09 04:51:43;;;;;;;17.92;6.97;;;22.30;98.00;;;;;;5049701;28;20039;-69
2023/07/09 04:54:09;;;;;;;14.77;6.53;;;22.40;97.50;;;;;;5049078;28;20025;-70
2023/07/09 04:56:36;;;;;;;14.55;7.00;;;22.50;97.30;;;;;;5049010;28;20112;-69
2023/07/09 04:59:02;;;;;;;10.52;6.60;;;22.60;97.00;;;;;;5050077;28;20032;-70
2023/07/09 05:01:28;;;;;;;10.07;6.50;;;22.50;97.20;;;;;;5048880;28;20033;-70
2023/07/09 05:03:54;;;;;;;15.25;6.20;;;22.60;97.30;;;;;;5052493;28;20076;-71
2023/07/09 05:06:21;;;;;;;14.35;6.57;;;22.70;97.30;;;;;;5045002;28;20388;-67
2023/07/09 05:08:48;;;;;;;11.10;6.13;;;22.80;96.80;;;;;;5083593;28;20033;-66
2023/07/09 05:11:15;;;;;;;13.77;6.70;;;22.80;96.60;;;;;;5047797;28;20053;-66
2023/07/09 05:13:41;;;;;;;13.55;5.95;;;22.80;96.70;;;;;;5049249;28;20032;-65
2023/07/09 05:16:07;;;;;;;11.37;6.17;;;23.00;96.20;;;;;;5047532;28;20029;-64
2023/07/09 05:18:32;;;;;;;14.88;6.40;;;23.10;95.90;;;;;;5048705;28;20291;-64
2023/07/09 05:20:58;;;;;;;15.27;6.10;;;23.20;95.90;;;;;;5050802;28;20063;-64
2023/07/09 05:23:26;;;;;;;14.27;6.53;;;23.40;95.80;;;;;;5046492;28;20615;-67
2023/07/09 05:25:59;;;;;;;13.05;5.88;;;23.40;95.00;;;;;;5051642;28;20025;-68
2023/07/09 05:28:25;;;;;;;14.35;5.80;;;24.00;94.40;;;;;;5051798;28;20041;-69
2023/07/09 05:30:51;;;;;;;12.73;6.85;;;24.90;92.20;;;;;;5050452;28;20029;-68
2023/07/09 05:33:18;;;;;;;12.10;6.13;;;25.60;90.70;;;;;;5056281;28;20043;-69
2023/07/09 05:35:44;;;;;;;14.43;6.28;;;25.40;90.20;;;;;;5051479;28;20284;-65
2023/07/09 05:38:11;;;;;;;10.68;6.32;;;25.50;90.20;;;;;;5051187;28;20118;-68
2023/07/09 05:40:36;;;;;;;;;;;25.90;89.00;;;;;;5052201;28;20488;-71
2023/07/09 05:43:02;;;;;;;13.32;6.18;;;26.90;84.40;;;;;;5048569;28;19917;-67
2023/07/09 05:45:28;;;;;;;9.05;6.07;;;27.30;83.80;;;;;;5050201;28;20079;-67
2023/07/09 05:47:53;;;;;;;13.43;5.82;;;28.30;79.90;;;;;;5049023;28;20040;-70
2023/07/09 05:50:19;;;;;;;13.07;6.30;;;28.30;79.20;;;;;;5054261;28;20025;-71
2023/07/09 05:52:45;;;;;;;10.43;5.38;;;29.00;77.70;;;;;;5050361;28;20142;-67
2023/07/09 05:55:11;;;;;;;11.60;6.00;;;29.60;73.70;;;;;;5050600;28;20078;-71
2023/07/09 05:57:38;;;;;;;8.57;5.75;;;29.30;76.00;;;;;;5048144;28;20041;-69
2023/07/09 06:00:04;;;;;;;15.05;6.05;;;29.60;73.60;;;;;;5048171;28;20029;-70
2023/07/09 06:02:29;;;;;;;12.60;5.40;;;29.60;72.90;;;;;;5049028;28;20036;-70
2023/07/09 06:04:58;;;;;;;17.00;5.75;;;30.20;73.90;;;;;;5047065;28;20043;-70
2023/07/09 06:07:23;;;;;;;12.52;6.07;;;30.80;71.80;;;;;;5049640;28;20097;-70
2023/07/09 06:09:49;;;;;;;13.60;5.93;;;30.70;69.80;;;;;;5052924;28;20052;-69
2023/07/09 06:12:15;;;;;;;12.75;6.10;;;29.70;71.80;;;;;;5045070;28;20029;-65
2023/07/09 06:14:41;;;;;;;9.07;5.50;;;29.90;71.30;;;;;;5047830;28;20029;-68
2023/07/09 06:17:06;;;;;;;10.55;5.45;;;30.70;70.90;;;;;;5054873;28;20536;-68
2023/07/09 06:19:32;;;;;;;;;;;31.50;69.30;;;;;;5047313;28;20036;-69
2023/07/09 06:21:57;;;;;;;9.13;6.35;;;31.60;68.60;;;;;;5046665;28;20106;-69
2023/07/09 06:24:23;;;;;;;;;;;32.30;68.30;;;;;;5051461;28;20097;-69
2023/07/09 06:26:49;;;;;;;4.32;1.70;;;34.20;65.40;;;;;;5060094;28;19920;-68
2023/07/09 06:29:14;;;;;;;;;;;32.30;65.30;;;;;;5049076;28;20033;-69
2023/07/09 06:31:42;;;;;;;15.07;5.40;;;32.90;64.80;;;;;;5045723;28;20003;-70
2023/07/09 06:34:09;;;;;;;8.50;5.18;;;31.90;66.10;;;;;;5048284;28;20029;-70
2023/07/09 06:36:35;;;;;;;11.50;5.50;;;32.80;66.20;;;;;;5047981;28;20056;-71
2023/07/09 06:39:01;;;;;;;16.27;5.95;;;32.50;64.50;;;;;;5046273;28;20039;-69
2023/07/09 06:41:27;;;;;;;8.45;4.95;;;32.50;65.10;;;;;;5040860;28;20029;-70
2023/07/09 06:43:53;;;;;;;16.20;7.07;;;30.80;66.30;;;;;;5046221;28;20102;-70
2023/07/09 06:46:19;;;;;;;10.07;5.60;;;30.60;69.60;;;;;;5047591;28;20024;-68
2023/07/09 06:48:45;;;;;;;13.27;5.60;;;30.10;72.20;;;;;;5048207;28;20033;-70
2023/07/09 06:51:11;;;;;;;15.15;5.80;;;29.70;73.70;;;;;;5047582;28;20579;-68
2023/07/09 06:53:37;;;;;;;;;;;29.80;71.90;;;;;;5052235;28;20174;-70
2023/07/09 06:56:03;;;;;;;11.05;4.82;;;29.40;72.40;;;;;;5050951;28;20256;-69
2023/07/09 06:58:33;;;;;;;10.02;5.53;;;29.40;73.90;;;;;;5044588;28;20098;-70
2023/07/09 07:01:03;;;;;;;12.35;6.10;;;30.90;70.80;;;;;;5047409;28;20041;-69
2023/07/09 07:03:29;;;;;;;12.45;5.25;;;30.80;69.70;;;;;;5047666;28;20052;-69
2023/07/09 07:05:55;;;;;;;;;;;30.30;68.80;;;;;;5050672;28;20050;-70
2023/07/09 07:08:22;;;;;;;9.63;5.57;;;29.20;72.40;;;;;;5048222;28;19970;-69
2023/07/09 07:10:49;;;;;;;9.23;5.50;;;29.30;73.30;;;;;;5044676;28;20033;-69
2023/07/09 07:13:15;;;;;;;12.48;5.20;;;29.60;74.20;;;;;;5049123;28;20025;-69
2023/07/09 07:15:40;;;;;;;;;;;30.30;73.10;;;;;;5050189;28;20531;-69
2023/07/09 07:18:07;;;;;;;8.82;5.32;;;31.50;68.60;;;;;;5047260;28;19967;-65
2023/07/09 07:20:34;;;;;;;16.35;5.38;;;31.40;67.10;;;;;;5045983;28;20028;-65
2023/07/09 07:23:00;;;;;;;12.48;5.63;;;30.30;71.40;;;;;;5049146;28;20068;-65
2023/07/09 07:25:26;;;;;;;19.67;6.72;;;30.00;72.40;;;;;;5049246;28;20071;-65
2023/07/09 07:27:51;;;;;;;9.20;5.13;;;30.20;74.50;;;;;;5044159;28;20119;-66
2023/07/09 07:30:17;;;;;;;12.30;5.60;;;29.70;72.50;;;;;;5045423;28;20088;-65
2023/07/09 07:32:47;;;;;;;14.90;5.95;;;29.40;74.20;;;;;;5046450;28;20483;-65
2023/07/09 07:35:13;;;;;;;11.25;5.47;;;29.20;74.60;;;;;;5044397;28;20472;-64
2023/07/09 07:37:39;;;;;;;;;;;29.50;74.70;;;;;;5046787;28;20049;-70
2023/07/09 07:40:06;;;;;;;11.00;5.93;;;29.50;74.20;;;;;;5047964;28;19917;-70
2023/07/09 07:42:32;;;;;;;11.77;6.03;;;29.10;71.90;;;;;;5050635;28;20582;-70
2023/07/09 07:44:58;;;;;;;9.32;5.60;;;29.10;73.90;;;;;;5046883;28;20041;-70
2023/07/09 07:47:23;;;;;;;12.82;6.47;;;29.50;73.10;;;;;;5047838;28;20119;-70
2023/07/09 07:49:49;;;;;;;12.70;5.95;;;29.20;75.70;;;;;;5047700;28;20037;-70
2023/07/09 07:52:15;;;;;;;9.68;5.60;;;29.30;75.60;;;;;;5048379;28;20029;-69
2023/07/09 07:54:40;;;;;;;15.50;7.13;;;29.20;76.20;;;;;;5057915;28;20119;-70
2023/07/09 07:57:08;;;;;;;9.80;5.90;;;29.50;74.70;;;;;;5052069;28;20076;-70
2023/07/09 07:59:35;;;;;;;11.30;5.35;;;29.50;74.40;;;;;;5046900;28;20075;-66
2023/07/09 08:02:02;;;;;;;9.65;5.90;;;29.70;75.70;;;;;;5047572;28;20033;-70
2023/07/09 08:04:27;;;;;;;9.57;5.78;;;29.60;74.40;;;;;;5046650;28;20033;-69
2023/07/09 08:06:53;;;;;;;9.45;5.93;;;29.70;77.00;;;;;;5046561;28;20033;-69
2023/07/09 08:09:19;;;;;;;14.40;6.18;;;29.70;76.80;;;;;;5049029;28;20037;-70
2023/07/09 08:11:45;;;;;;;10.80;5.63;;;29.80;75.70;;;;;;5047194;28;20029;-68
2023/07/09 08:14:11;;;;;;;13.65;6.45;;;29.70;73.20;;;;;;5048183;28;20037;-71
2023/07/09 08:16:36;;;;;;;12.63;5.60;;;30.30;74.30;;;;;;5052909;28;20033;-70
2023/07/09 08:19:02;;;;;;;11.82;6.68;;;31.80;71.00;;;;;;5046544;28;20086;-70
2023/07/09 08:21:27;;;;;;;14.77;5.70;;;34.00;64.50;;;;;;5047067;28;20657;-70
2023/07/09 08:23:53;;;;;;;13.77;5.47;;;33.00;63.40;;;;;;5047075;28;20041;-69
2023/07/09 08:26:19;;;;;;;12.82;5.65;;;31.90;66.30;;;;;;5047499;28;20044;-70
2023/07/09 08:28:44;;;;;;;8.70;5.57;;;31.60;70.00;;;;;;5048938;28;20569;-69
2023/07/09 08:31:10;;;;;;;15.65;6.05;;;31.70;69.20;;;;;;5051825;28;20531;-70
2023/07/09 08:33:36;;;;;;;8.48;5.80;;;33.40;64.40;;;;;;5053400;28;20162;-70
2023/07/09 08:36:02;;;;;;;10.57;5.45;;;36.90;60.70;;;;;;5046870;28;20029;-69
2023/07/09 08:38:27;;;;;;;;;;;38.20;56.80;;;;;;5051128;28;20025;-71
2023/07/09 08:41:05;;;;;;;11.00;5.43;;;39.60;53.50;;;;;;5050122;28;19920;-70
2023/07/09 08:43:52;;;;;;;7.93;4.60;;;40.90;51.00;;;;;;5047055;28;20044;-70
2023/07/09 08:46:35;;;;;;;5.88;5.25;;;40.30;48.80;;;;;;5050260;28;20033;-71
2023/07/09 08:49:03;;;;;;;9.38;4.43;;;38.90;52.90;;;;;;5049000;28;20090;-70
2023/07/09 08:51:31;;;;;;;8.20;4.80;;;38.00;53.80;;;;;;5047468;28;20025;-70
2023/07/09 08:53:58;;;;;;;9.77;5.70;;;38.10;53.70;;;;;;5051507;28;20032;-71
2023/07/09 08:56:26;;;;;;;7.18;4.10;;;36.70;54.60;;;;;;5048162;28;20063;-71
2023/07/09 08:58:56;;;;;;;6.13;4.63;;;35.00;56.10;;;;;;5039402;28;20047;-70
2023/07/09 09:01:39;;;;;;;8.85;4.65;;;35.20;57.20;;;;;;5051867;28;20083;-71
2023/07/09 09:04:18;;;;;;;7.32;4.68;;;38.30;54.40;;;;;;5050094;28;20025;-70
2023/07/09 09:07:00;;;;;;;6.00;4.50;;;41.30;48.70;;;;;;5044315;28;20028;-70
2023/07/09 09:09:41;;;;;;;7.70;4.95;;;42.80;47.50;;;;;;5048574;28;20068;-71
2023/07/09 09:12:21;;;;;;;10.00;4.43;;;43.50;46.00;;;;;;5049586;28;20100;-71
2023/07/09 09:14:57;;;;;;;12.70;4.15;;;44.90;46.20;;;;;;5050567;28;20115;-70
2023/07/09 09:17:26;;;;;;;9.75;4.55;;;44.00;44.60;;;;;;5050452;28;20078;-71
2023/07/09 09:20:22;;;;;;;7.47;4.28;;;43.60;43.80;;;;;;5048959;28;20029;-71
2023/07/09 09:23:07;;;;;;;10.05;4.80;;;44.50;43.70;;;;;;5050712;28;20033;-71
2023/07/09 09:25:37;;;;;;;8.68;4.30;;;45.50;43.90;;;;;;5049105;28;20029;-71
2023/07/09 09:28:03;;;;;;;11.98;4.25;;;45.70;41.70;;;;;;5049882;28;20024;-67
2023/07/09 09:30:30;;;;;;;14.13;4.68;;;46.00;42.60;;;;;;5083556;28;20033;-65
2023/07/09 09:32:58;;;;;;;6.60;3.95;;;44.90;44.40;;;;;;5048932;28;20508;-70
2023/07/09 09:35:33;;;;;;;5.88;4.03;;;46.00;44.90;;;;;;5048968;28;20029;-66
2023/07/09 09:37:59;;;;;;;10.35;5.25;;;45.80;42.80;;;;;;5049362;28;20040;-67
2023/07/09 09:40:27;;;;;;;13.18;4.53;;;47.30;41.40;;;;;;5043450;28;20032;-68
2023/07/09 09:42:54;;;;;;;7.13;4.78;;;48.00;41.40;;;;;;5051179;28;20086;-68
2023/07/09 09:45:24;;;;;;;7.38;4.07;;;48.00;42.40;;;;;;5047947;28;20032;-68
2023/07/09 09:47:50;;;;;;;8.30;4.63;;;47.30;42.30;;;;;;5051024;28;20047;-69
2023/07/09 09:50:18;;;;;;;12.52;5.15;;;48.30;42.50;;;;;;5046415;28;20442;-68
2023/07/09 09:52:45;;;;;;;10.50;4.07;;;46.60;43.20;;;;;;5049214;28;20492;-68
2023/07/09 09:55:25;;;;;;;10.10;4.78;;;48.10;44.00;;;;;;5048891;28;20468;-69
2023/07/09 09:57:53;;;;;;;5.82;3.92;;;47.50;43.10;;;;;;5049162;28;20033;-69
2023/07/09 10:00:22;;;;;;;7.47;4.53;;;47.90;43.40;;;;;;5047300;28;20021;-69
2023/07/09 10:02:49;;;;;;;12.98;4.20;;;48.80;42.40;;;;;;5083674;28;20139;-69
2023/07/09 10:05:25;;;;;;;8.30;4.28;;;48.80;41.90;;;;;;5048325;28;20025;-69
2023/07/09 10:08:03;;;;;;;6.40;4.45;;;47.60;42.10;;;;;;5043414;28;20040;-69
2023/07/09 10:10:32;;;;;;;6.45;4.57;;;48.30;43.50;;;;;;5047437;28;20024;-69
2023/07/09 10:13:24;;;;;;;8.48;4.55;;;48.80;43.10;;;;;;5048406;28;20033;-69
2023/07/09 10:16:08;;;;;;;5.97;4.93;;;48.80;41.30;;;;;;5047552;28;20043;-69
2023/07/09 10:18:55;;;;;;;9.18;4.57;;;49.10;42.70;;;;;;5043741;28;20025;-69
2023/07/09 10:21:24;;;;;;;8.35;4.40;;;50.10;42.80;;;;;;5050148;28;20033;-69
2023/07/09 10:24:22;;;;;;;8.85;4.30;;;47.20;42.70;;;;;;5044520;28;20512;-69
2023/07/09 10:27:03;;;;;;;9.50;4.35;;;48.00;41.80;;;;;;5047317;28;20033;-69
2023/07/09 10:30:05;;;;;;;12.90;4.25;;;45.80;42.40;;;;;;5049764;28;20108;-69
2023/07/09 10:32:47;;;;;;;10.35;4.38;;;42.80;46.20;;;;;;5010253;28;20037;-69
2023/07/09 10:35:38;;;;;;;10.85;4.85;;;39.90;48.70;;;;;;5045525;28;20037;-68
2023/07/09 10:38:33;;;;;;;12.25;5.07;;;38.40;53.20;;;;;;5028601;28;20045;-68
2023/07/09 10:41:00;;;;;;;9.65;4.30;;;38.00;50.90;;;;;;5052044;28;20044;-69
2023/07/09 10:43:46;;;;;;;7.93;4.25;;;37.70;55.30;;;;;;5044667;28;20033;-69
2023/07/09 10:46:18;;;;;;;5.85;4.35;;;37.30;55.40;;;;;;5049671;28;20052;-68
2023/07/09 10:48:47;;;;;;;11.02;5.00;;;37.10;55.80;;;;;;5067865;28;20025;-69
2023/07/09 10:51:53;;;;;;;8.30;3.75;;;36.90;54.80;;;;;;5044651;28;20032;-69
2023/07/09 10:54:49;;;;;;;13.77;5.28;;;37.30;55.90;;;;;;5044208;28;20129;-68
2023/07/09 10:57:27;;;;;;;7.15;4.55;;;36.80;55.80;;;;;;5048711;28;20043;-68
2023/07/09 10:59:54;;;;;;;8.43;4.60;;;36.60;55.40;;;;;;5046479;28;20025;-68
2023/07/09 11:02:25;;;;;;;11.63;4.60;;;36.50;53.90;;;;;;5048092;28;20143;-68
2023/07/09 11:04:55;;;;;;;8.95;4.90;;;36.70;53.80;;;;;;5046657;28;20889;-68
2023/07/09 11:08:02;;;;;;;8.35;4.60;;;36.40;55.30;;;;;;5046511;28;20029;-69
2023/07/09 11:10:41;;;;;;;9.50;4.63;;;36.60;55.90;;;;;;5045941;28;20045;-68
2023/07/09 11:13:12;;;;;;;7.15;4.53;;;36.70;54.80;;;;;;5049028;28;20040;-68
2023/07/09 11:15:47;;;;;;;17.15;5.50;;;36.20;55.30;;;;;;5047229;28;20095;-68
2023/07/09 11:18:21;;;;;;;10.40;4.72;;;36.10;55.60;;;;;;5048677;28;21285;-68
2023/07/09 11:20:54;;;;;;;8.18;4.88;;;35.70;55.80;;;;;;5050412;28;20040;-68
2023/07/09 11:23:24;;;;;;;8.65;4.70;;;36.40;59.40;;;;;;5050772;28;20041;-68
2023/07/09 11:26:02;;;;;;;8.27;4.82;;;36.60;59.10;;;;;;5046971;28;20049;-68
2023/07/09 11:28:35;;;;;;;10.00;4.80;;;36.20;56.80;;;;;;5049349;28;20405;-68
2023/07/09 11:31:30;;;;;;;11.45;5.15;;;36.70;55.70;;;;;;5046558;28;20033;-68
2023/07/09 11:34:07;;;;;;;31.50;21.15;;;36.00;53.70;;;;;;5049175;28;20052;-68
2023/07/09 11:36:35;;;;;;;9.80;5.00;;;36.40;57.40;;;;;;5050536;28;20063;-68
2023/07/09 11:39:02;;;;;;;11.45;4.78;;;36.10;54.80;;;;;;5048196;28;20031;-68
2023/07/09 11:41:43;;;;;;;18.75;5.80;;;35.80;54.10;;;;;;5047059;28;20550;-68
2023/07/09 11:44:21;;;;;;;9.57;5.25;;;35.60;56.00;;;;;;5047898;28;20028;-68
2023/07/09 11:47:13;;;;;;;13.50;4.57;;;36.10;54.80;;;;;;5050615;28;20025;-68
2023/07/09 11:50:00;;;;;;;11.98;4.35;;;36.10;56.50;;;;;;5043308;28;20040;-68
2023/07/09 11:52:33;;;;;;;11.20;4.55;;;36.20;56.80;;;;;;5046539;28;20037;-68
2023/07/09 11:55:02;;;;;;;9.13;4.13;;;35.90;54.40;;;;;;5046887;28;20049;-68
2023/07/09 11:57:29;;;;;;;11.32;5.00;;;35.80;54.00;;;;;;5045510;28;20448;-68
2023/07/09 12:00:00;;;;;;;11.18;4.90;;;35.90;54.60;;;;;;5080582;28;20020;-68
2023/07/09 12:02:32;;;;;;;13.50;4.93;;;35.30;54.70;;;;;;5047693;28;20166;-68
2023/07/09 12:04:59;;;;;;;8.82;4.07;;;35.60;56.80;;;;;;5054938;28;20021;-68
2023/07/09 12:07:26;;;;;;;13.65;5.00;;;35.70;56.70;;;;;;5054961;28;20075;-68
2023/07/09 12:09:52;;;;;;;12.00;5.32;;;36.10;56.00;;;;;;5053056;28;20029;-68
2023/07/09 12:12:19;;;;;;;10.35;4.88;;;35.90;57.50;;;;;;5055999;28;20032;-67
2023/07/09 12:14:45;;;;;;;8.05;5.43;;;35.80;56.20;;;;;;5052144;28;20033;-68
2023/07/09 12:17:10;;;;;;;10.57;4.75;;;36.10;56.40;;;;;;5053400;28;20107;-68
2023/07/09 12:19:36;;;;;;;9.77;4.93;;;35.90;56.90;;;;;;5046855;28;20029;-67
2023/07/09 12:22:05;;;;;;;14.48;5.68;;;36.00;60.00;;;;;;5049335;28;20037;-69
2023/07/09 12:24:44;;;;;;;6.65;4.75;;;35.80;57.60;;;;;;5049601;28;20521;-68
2023/07/09 12:27:25;;;;;;;7.70;5.10;;;35.70;57.60;;;;;;5050049;28;20044;-68
2023/07/09 12:29:55;;;;;;;9.07;4.85;;;35.70;59.10;;;;;;5049558;28;20029;-67
2023/07/09 12:32:22;;;;;;;6.88;4.53;;;35.80;55.90;;;;;;5051225;28;20099;-68
2023/07/09 12:34:52;;;;;;;7.38;4.40;;;36.00;55.20;;;;;;5057651;28;20040;-67
2023/07/09 12:37:21;;;;;;;10.25;5.00;;;35.70;58.20;;;;;;5050883;28;20035;-67
2023/07/09 12:39:49;;;;;;;6.47;4.80;;;35.40;60.50;;;;;;5048693;28;20025;-67
2023/07/09 12:42:36;;;;;;;14.32;4.72;;;35.80;58.10;;;;;;5051649;28;20036;-67
2023/07/09 12:45:02;;;;;;;9.30;4.20;;;36.00;57.00;;;;;;5049419;28;20108;-67
2023/07/09 12:47:28;;;;;;;6.00;4.25;;;35.80;57.10;;;;;;5085003;28;20078;-67
2023/07/09 12:50:15;;;;;;;12.73;5.82;;;35.90;56.40;;;;;;5050985;28;20036;-68
2023/07/09 12:52:49;;;;;;;13.63;5.70;;;35.60;57.50;;;;;;5050761;28;20415;-69
2023/07/09 12:55:23;;;;;;;83.78;18.58;;;35.30;55.40;;;;;;5050345;28;20472;-73